Time;durP1;ratioP1;P1;durP2;ratioP2;P2;SDS_P1;SDS_P2;PMS_P1;PMS_P2;Temp;Humidity;BMP_temperature;BMP_pressure;BME280_temperature;BME280_humidity;BME280_pressure;Samples;Min_cycle;Max_cycle;Signal;HPM_P1;HPM_P2
2022/11/05 00:09:34;;;;;;;1.17;0.60;;;9.70;99.90;;;;;;5051696;28;20220;-83
2022/11/05 00:17:33;;;;;;;2.93;0.97;;;9.70;99.90;;;;;;5033667;28;20245;-84
2022/11/05 00:20:00;;;;;;;2.87;0.80;;;9.70;99.90;;;;;;5034205;28;20203;-84
2022/11/05 00:25:15;;;;;;;1.57;0.70;;;9.70;99.90;;;;;;5051783;28;20328;-84
2022/11/05 00:27:44;;;;;;;1.47;0.50;;;9.70;99.90;;;;;;5053639;28;20194;-85
2022/11/05 00:30:13;;;;;;;2.77;0.80;;;9.70;99.90;;;;;;5052224;28;20206;-84
2022/11/05 00:32:40;;;;;;;2.90;0.70;;;9.70;99.90;;;;;;5052813;28;20234;-84
2022/11/05 00:35:07;;;;;;;1.40;0.53;;;9.60;99.90;;;;;;5052662;28;20209;-84
2022/11/05 00:37:34;;;;;;;1.57;0.60;;;9.60;99.90;;;;;;5052795;28;20281;-84
2022/11/05 00:40:01;;;;;;;2.33;0.83;;;9.60;99.90;;;;;;5053322;28;20202;-85
2022/11/05 00:45:14;;;;;;;2.63;0.83;;;9.50;99.90;;;;;;5053186;28;20283;-81
2022/11/05 00:50:27;;;;;;;4.10;0.87;;;9.40;99.90;;;;;;5050901;28;20213;-84
2022/11/05 00:52:56;;;;;;;4.03;0.70;;;9.50;99.90;;;;;;5052594;28;20316;-83
2022/11/05 00:55:25;;;;;;;3.27;0.73;;;9.50;99.90;;;;;;5053866;28;20202;-84
2022/11/05 00:57:52;;;;;;;2.13;0.80;;;9.50;99.90;;;;;;5052142;28;20198;-84
2022/11/05 01:00:22;;;;;;;1.67;0.53;;;9.40;99.90;;;;;;5052419;28;20214;-84
2022/11/05 01:02:49;;;;;;;1.77;0.90;;;9.40;99.90;;;;;;5052556;28;20368;-84
2022/11/05 01:05:16;;;;;;;4.50;1.37;;;9.40;99.90;;;;;;5052063;28;20205;-84
2022/11/05 01:07:43;;;;;;;2.97;1.43;;;9.40;99.90;;;;;;5052530;28;20209;-84
2022/11/05 01:10:10;;;;;;;4.57;1.50;;;9.40;99.90;;;;;;5050064;28;20214;-83
2022/11/05 01:12:36;;;;;;;2.33;1.10;;;9.50;99.90;;;;;;5050734;28;20241;-84
2022/11/05 01:15:05;;;;;;;2.37;1.23;;;9.50;99.90;;;;;;5047046;28;20200;-79
2022/11/05 01:17:33;;;;;;;3.20;1.00;;;9.50;99.90;;;;;;5057881;22;20244;-81
2022/11/05 01:20:00;;;;;;;6.87;1.40;;;9.50;99.90;;;;;;5066249;28;20201;-80
2022/11/05 01:22:27;;;;;;;3.10;1.40;;;9.60;99.90;;;;;;5065374;28;20209;-80
2022/11/05 01:24:54;;;;;;;2.40;1.40;;;9.70;99.90;;;;;;5053114;28;20689;-79
2022/11/05 01:27:20;;;;;;;5.50;1.43;;;9.70;99.90;;;;;;5046892;28;20206;-80
2022/11/05 01:29:47;;;;;;;2.30;1.77;;;9.70;99.90;;;;;;5054179;28;20610;-79
2022/11/05 01:32:14;;;;;;;3.50;1.40;;;9.70;99.90;;;;;;5047696;28;20241;-80
2022/11/05 01:34:42;;;;;;;2.50;1.03;;;9.70;99.90;;;;;;5046107;28;20232;-80
2022/11/05 01:37:09;;;;;;;3.23;1.30;;;9.70;99.90;;;;;;5059674;28;20219;-79
2022/11/05 01:39:36;;;;;;;2.80;0.87;;;9.60;99.90;;;;;;5047182;28;20602;-82
2022/11/05 01:42:03;;;;;;;1.40;0.70;;;9.60;99.90;;;;;;5047747;28;20209;-80
2022/11/05 01:44:54;;;;;;;3.47;1.00;;;9.60;99.90;;;;;;5057682;28;20752;-83
2022/11/05 01:47:32;;;;;;;4.33;0.90;;;9.60;99.90;;;;;;5064929;28;20201;-80
2022/11/05 01:50:05;;;;;;;3.70;1.00;;;9.60;99.90;;;;;;5054535;28;20506;-79
2022/11/05 01:52:34;;;;;;;1.80;0.80;;;9.60;99.90;;;;;;5062277;28;20315;-80
2022/11/05 01:55:02;;;;;;;1.03;0.80;;;9.60;99.90;;;;;;5044697;28;20202;-79
2022/11/05 01:57:30;;;;;;;2.10;0.90;;;9.60;99.90;;;;;;5046350;28;20202;-79
2022/11/05 01:59:59;;;;;;;1.63;1.37;;;9.60;99.90;;;;;;5044962;28;20198;-77
2022/11/05 02:02:27;;;;;;;1.70;0.80;;;9.60;99.90;;;;;;5026268;28;20209;-82
2022/11/05 02:04:58;;;;;;;3.53;1.13;;;9.50;99.90;;;;;;5026242;28;20203;-78
2022/11/05 02:07:29;;;;;;;1.57;0.80;;;9.50;99.90;;;;;;5026292;28;20205;-80
2022/11/05 02:10:01;;;;;;;1.57;0.90;;;9.50;99.90;;;;;;5025085;28;20524;-81
2022/11/05 02:12:28;;;;;;;3.07;0.80;;;9.40;99.90;;;;;;5025969;28;20230;-80
2022/11/05 02:14:56;;;;;;;2.37;1.10;;;9.40;99.90;;;;;;5026315;28;20245;-79
2022/11/05 02:17:34;;;;;;;4.07;1.00;;;9.30;99.90;;;;;;5027547;28;20277;-82
2022/11/05 02:20:11;;;;;;;4.67;1.60;;;9.30;99.90;;;;;;5030774;28;20212;-85
2022/11/05 02:23:17;;;;;;;5.73;1.90;;;9.30;99.90;;;;;;5030729;28;20196;-83
2022/11/05 02:26:12;;;;;;;4.27;1.53;;;9.40;99.90;;;;;;5015224;28;20285;-85
2022/11/05 02:29:12;;;;;;;4.63;1.87;;;9.50;99.90;;;;;;5027131;28;20629;-82
2022/11/05 02:31:47;;;;;;;4.50;1.80;;;9.50;99.90;;;;;;5028997;28;20217;-84
2022/11/05 02:34:23;;;;;;;5.00;1.77;;;9.70;99.90;;;;;;5031289;28;20305;-84
2022/11/05 02:36:57;;;;;;;7.40;1.50;;;9.80;99.90;;;;;;5030610;28;20198;-85
2022/11/05 02:39:35;;;;;;;4.43;1.63;;;9.80;99.90;;;;;;5047540;28;20230;-83
2022/11/05 02:42:11;;;;;;;3.83;1.80;;;9.90;99.90;;;;;;5050223;28;20209;-85
2022/11/05 02:44:44;;;;;;;6.57;1.40;;;10.00;99.90;;;;;;5048453;28;20282;-84
2022/11/05 02:47:25;;;;;;;4.03;1.70;;;10.20;99.90;;;;;;5047579;28;20205;-84
2022/11/05 02:49:57;;;;;;;3.93;1.53;;;10.30;99.90;;;;;;5047059;28;20213;-82
2022/11/05 02:52:33;;;;;;;2.17;1.57;;;10.30;99.90;;;;;;5046262;28;20770;-81
2022/11/05 02:55:07;;;;;;;9.07;2.63;;;10.40;99.90;;;;;;5045233;28;20638;-81
2022/11/05 02:57:36;;;;;;;5.40;2.47;;;10.50;99.90;;;;;;5044955;28;20216;-79
2022/11/05 03:00:06;;;;;;;11.13;2.43;;;10.70;99.90;;;;;;5044952;28;20205;-81
2022/11/05 03:02:35;;;;;;;7.43;2.70;;;10.80;99.90;;;;;;5045616;28;20198;-78
2022/11/05 03:05:03;;;;;;;14.40;3.80;;;11.00;99.90;;;;;;5043985;28;20217;-82
2022/11/05 03:07:43;;;;;;;6.07;1.60;;;11.10;99.90;;;;;;5044878;28;20201;-79
2022/11/05 03:10:33;;;;;;;4.80;1.90;;;11.20;99.90;;;;;;5044996;28;20205;-81
2022/11/05 03:13:15;;;;;;;6.47;2.27;;;11.30;99.90;;;;;;5043984;28;20656;-81
2022/11/05 03:15:49;;;;;;;3.03;1.40;;;11.30;99.90;;;;;;5045344;28;20469;-80
2022/11/05 03:18:24;;;;;;;5.37;1.47;;;11.40;99.90;;;;;;5028107;28;20642;-79
2022/11/05 03:20:56;;;;;;;2.80;1.40;;;11.30;99.90;;;;;;5025885;28;20209;-82
2022/11/05 03:23:28;;;;;;;6.70;1.30;;;11.30;99.90;;;;;;5042146;28;20206;-79
2022/11/05 03:26:07;;;;;;;6.47;1.67;;;11.30;99.90;;;;;;5044845;28;20201;-80
2022/11/05 03:28:41;;;;;;;3.77;1.70;;;11.10;99.90;;;;;;5038699;28;20751;-81
2022/11/05 03:31:10;;;;;;;4.60;1.80;;;11.10;99.90;;;;;;5025908;28;20277;-80
2022/11/05 03:33:41;;;;;;;8.97;1.73;;;11.10;99.90;;;;;;5031443;28;20243;-81
2022/11/05 03:36:15;;;;;;;3.93;1.43;;;11.10;99.90;;;;;;5045518;28;20238;-81
2022/11/05 03:38:47;;;;;;;4.47;1.40;;;11.10;99.90;;;;;;5044711;28;20201;-80
2022/11/05 03:41:16;;;;;;;3.77;1.80;;;11.10;99.90;;;;;;5043927;28;20872;-81
2022/11/05 03:43:48;;;;;;;7.23;2.20;;;11.10;99.90;;;;;;5043383;28;20201;-81
2022/11/05 03:46:18;;;;;;;6.50;2.07;;;11.00;99.90;;;;;;5044786;28;20213;-81
2022/11/05 03:48:51;;;;;;;2.97;1.67;;;11.00;99.90;;;;;;5044769;28;20194;-80
2022/11/05 03:51:27;;;;;;;5.63;1.43;;;10.90;99.90;;;;;;5044054;28;20206;-80
2022/11/05 03:53:58;;;;;;;7.50;1.70;;;10.90;99.90;;;;;;5042403;28;20221;-81
2022/11/05 03:56:30;;;;;;;5.00;1.67;;;10.90;99.90;;;;;;5043634;28;20225;-80
2022/11/05 03:58:59;;;;;;;3.07;1.30;;;10.90;99.90;;;;;;5043436;28;20220;-79
2022/11/05 04:01:27;;;;;;;4.50;1.90;;;11.00;99.90;;;;;;5042165;28;20215;-81
2022/11/05 04:03:55;;;;;;;5.13;1.43;;;11.00;99.90;;;;;;5043947;28;20202;-81
2022/11/05 04:14:35;;;;;;;6.20;2.33;;;10.90;99.90;;;;;;5041259;28;20297;-79
2022/11/05 04:17:08;;;;;;;3.93;1.40;;;10.90;99.90;;;;;;5043266;28;20538;-79
2022/11/05 04:25:08;;;;;;;5.83;1.40;;;10.90;99.90;;;;;;5043541;28;20244;-80
2022/11/05 04:27:35;;;;;;;6.77;1.40;;;11.00;99.90;;;;;;5043641;28;20330;-79
2022/11/05 04:30:20;;;;;;;3.20;1.50;;;11.00;99.90;;;;;;5040938;28;20293;-81
2022/11/05 04:33:02;;;;;;;6.30;1.67;;;11.00;99.90;;;;;;5042717;28;20186;-82
2022/11/05 04:35:33;;;;;;;3.50;1.80;;;11.00;99.90;;;;;;5043274;28;20217;-79
2022/11/05 04:38:00;;;;;;;5.77;1.73;;;10.90;99.90;;;;;;5040925;28;20332;-78
2022/11/05 04:40:27;;;;;;;6.07;1.77;;;10.90;99.90;;;;;;5042527;28;20198;-79
2022/11/05 04:42:55;;;;;;;6.30;1.50;;;10.80;99.90;;;;;;5040983;28;20833;-80
2022/11/05 04:45:22;;;;;;;4.57;2.07;;;10.90;99.90;;;;;;5044384;28;20603;-84
2022/11/05 04:47:49;;;;;;;9.50;1.97;;;10.90;99.90;;;;;;5027845;28;20209;-82
2022/11/05 04:50:17;;;;;;;4.37;1.73;;;10.90;99.90;;;;;;5028410;28;20206;-86
2022/11/05 04:52:45;;;;;;;3.63;1.47;;;10.90;99.90;;;;;;5029533;28;20230;-83
2022/11/05 04:55:12;;;;;;;4.97;1.70;;;10.90;99.90;;;;;;5048273;28;20236;-85
2022/11/05 04:57:39;;;;;;;3.93;1.70;;;11.00;99.90;;;;;;5051234;28;20529;-86
2022/11/05 05:00:08;;;;;;;8.73;2.13;;;11.00;99.90;;;;;;5052820;28;20197;-84
2022/11/05 05:02:36;;;;;;;3.87;1.73;;;10.90;99.90;;;;;;5051599;28;20205;-85
2022/11/05 05:05:03;;;;;;;5.47;1.87;;;10.90;99.90;;;;;;5051958;28;20538;-83
2022/11/05 05:07:30;;;;;;;5.60;1.90;;;11.10;99.90;;;;;;5051386;28;20213;-86
2022/11/05 05:09:59;;;;;;;5.40;1.70;;;11.10;99.90;;;;;;5052366;28;20209;-86
2022/11/05 05:12:26;;;;;;;6.17;2.07;;;11.20;99.90;;;;;;5051858;28;20209;-82
2022/11/05 05:14:52;;;;;;;5.00;1.53;;;11.20;99.90;;;;;;5050376;28;20369;-80
2022/11/05 05:17:19;;;;;;;5.37;2.30;;;11.20;99.90;;;;;;5046528;28;20240;-81
2022/11/05 05:22:30;;;;;;;3.73;1.80;;;11.10;99.90;;;;;;5015555;28;20206;-79
2022/11/05 05:24:58;;;;;;;7.00;1.80;;;11.20;99.90;;;;;;5049127;28;20198;-85
2022/11/05 05:27:28;;;;;;;4.03;1.40;;;11.20;99.90;;;;;;5050572;28;20205;-84
2022/11/05 05:29:55;;;;;;;4.23;1.70;;;11.20;99.90;;;;;;5049467;28;20222;-83
2022/11/05 05:32:23;;;;;;;5.33;1.60;;;11.20;99.90;;;;;;5046088;28;20211;-79
2022/11/05 05:34:50;;;;;;;6.43;1.60;;;11.20;99.90;;;;;;5045735;28;20233;-80
2022/11/05 05:37:17;;;;;;;4.37;2.10;;;11.20;99.90;;;;;;5046207;28;20201;-81
2022/11/05 05:39:44;;;;;;;3.63;1.73;;;11.20;99.90;;;;;;5044618;28;20202;-80
2022/11/05 05:42:13;;;;;;;7.43;1.67;;;11.20;99.90;;;;;;5045872;28;20206;-79
2022/11/05 05:44:40;;;;;;;4.17;1.40;;;11.20;99.90;;;;;;5045548;28;20202;-80
2022/11/05 05:47:07;;;;;;;6.43;1.77;;;11.20;99.90;;;;;;5047046;28;20206;-85
2022/11/05 05:49:33;;;;;;;3.90;1.60;;;11.20;99.90;;;;;;5047790;28;20202;-79
2022/11/05 05:52:00;;;;;;;3.27;1.20;;;11.20;99.90;;;;;;5044978;28;20237;-81
2022/11/05 05:54:27;;;;;;;4.50;1.60;;;11.20;99.90;;;;;;5043446;28;20229;-79
2022/11/05 05:56:54;;;;;;;4.83;1.60;;;11.20;99.90;;;;;;5045951;28;20213;-80
2022/11/05 05:59:23;;;;;;;2.53;1.27;;;11.30;99.90;;;;;;5045219;28;20594;-79
2022/11/05 06:01:50;;;;;;;5.57;1.30;;;11.30;99.90;;;;;;5043966;28;20213;-81
2022/11/05 06:04:17;;;;;;;2.97;1.20;;;11.30;99.90;;;;;;5044883;28;20210;-79
2022/11/05 06:06:45;;;;;;;6.43;1.50;;;11.30;99.90;;;;;;5046362;28;20275;-81
2022/11/05 06:09:13;;;;;;;8.80;1.50;;;11.30;99.90;;;;;;5044525;28;20224;-80
2022/11/05 06:11:39;;;;;;;4.87;1.50;;;11.30;99.90;;;;;;5044688;28;20202;-79
2022/11/05 06:14:09;;;;;;;5.40;1.50;;;11.20;99.90;;;;;;5044872;28;20261;-79
2022/11/05 06:16:37;;;;;;;6.23;1.50;;;11.20;99.90;;;;;;5045175;28;20210;-81
2022/11/05 06:19:04;;;;;;;8.33;1.50;;;11.20;99.90;;;;;;5045943;28;20237;-80
2022/11/05 06:21:31;;;;;;;5.33;1.70;;;11.20;99.90;;;;;;5044965;28;20202;-82
2022/11/05 06:24:00;;;;;;;5.77;1.53;;;11.20;99.90;;;;;;5044070;28;20206;-79
2022/11/05 06:26:27;;;;;;;6.37;1.77;;;11.20;99.90;;;;;;5045457;28;20205;-80
2022/11/05 06:28:53;;;;;;;6.17;1.57;;;11.20;99.90;;;;;;5044674;28;20198;-80
2022/11/05 06:31:20;;;;;;;3.97;1.10;;;11.20;99.90;;;;;;5044729;28;20213;-81
2022/11/05 06:33:49;;;;;;;3.63;1.13;;;11.20;99.90;;;;;;5045465;28;20233;-79
2022/11/05 06:36:18;;;;;;;3.13;1.17;;;11.30;99.90;;;;;;5044983;28;20225;-80
2022/11/05 06:38:45;;;;;;;5.80;1.30;;;11.30;99.90;;;;;;5044605;28;20209;-80
2022/11/05 06:41:12;;;;;;;3.97;1.47;;;11.30;99.90;;;;;;5045208;28;20209;-82
2022/11/05 06:43:39;;;;;;;4.03;1.20;;;11.30;99.90;;;;;;5048579;28;20620;-86
2022/11/05 06:46:06;;;;;;;2.47;1.03;;;11.30;99.90;;;;;;5049664;28;20212;-81
2022/11/05 06:48:33;;;;;;;2.57;1.20;;;11.30;99.90;;;;;;5048894;28;20206;-82
2022/11/05 06:51:01;;;;;;;7.63;1.63;;;11.20;99.90;;;;;;5049359;28;20220;-87
2022/11/05 06:53:28;;;;;;;5.67;1.63;;;11.20;99.90;;;;;;5046806;28;20236;-84
2022/11/05 06:55:55;;;;;;;5.23;1.77;;;11.10;99.90;;;;;;5040609;28;20213;-85
2022/11/05 06:58:22;;;;;;;7.03;2.03;;;11.10;99.90;;;;;;5043888;28;20198;-85
2022/11/05 07:00:49;;;;;;;4.90;1.70;;;11.10;99.90;;;;;;5048136;28;20213;-83
2022/11/05 07:03:16;;;;;;;5.67;1.60;;;11.10;99.90;;;;;;5051370;28;20292;-84
2022/11/05 07:05:45;;;;;;;4.50;1.43;;;11.10;99.90;;;;;;5050406;28;20201;-83
2022/11/05 07:08:14;;;;;;;8.57;1.93;;;11.20;99.90;;;;;;5050136;28;20220;-85
2022/11/05 07:10:41;;;;;;;6.53;1.53;;;11.10;99.90;;;;;;5051300;28;20206;-83
2022/11/05 07:13:08;;;;;;;3.97;1.47;;;11.10;99.90;;;;;;5053062;28;20201;-83
2022/11/05 07:15:35;;;;;;;6.40;1.70;;;11.10;99.90;;;;;;5050632;28;20324;-84
2022/11/05 07:18:02;;;;;;;5.53;1.70;;;11.10;99.90;;;;;;5048852;28;20244;-85
2022/11/05 07:20:29;;;;;;;7.03;2.10;;;11.10;99.90;;;;;;5050472;28;20198;-87
2022/11/05 07:23:06;;;;;;;10.03;3.00;;;11.20;99.90;;;;;;5050019;28;20684;-86
2022/11/05 07:25:35;;;;;;;8.67;2.70;;;11.30;99.90;;;;;;5046465;28;20200;-87
2022/11/05 07:28:02;;;;;;;3.83;1.70;;;11.20;99.90;;;;;;5046258;28;20206;-80
2022/11/05 07:30:29;;;;;;;4.67;1.00;;;11.30;99.90;;;;;;5045816;28;20209;-82
2022/11/05 07:32:56;;;;;;;2.43;0.90;;;11.20;99.90;;;;;;5045396;28;20859;-79
2022/11/05 07:35:23;;;;;;;1.73;0.90;;;11.10;99.90;;;;;;5032949;28;20218;-84
2022/11/05 07:37:52;;;;;;;4.80;1.40;;;11.00;99.90;;;;;;5028800;28;20210;-85
2022/11/05 07:40:21;;;;;;;3.37;1.40;;;11.00;99.90;;;;;;5026984;28;20207;-83
2022/11/05 07:42:51;;;;;;;6.83;2.17;;;10.90;99.90;;;;;;5042419;28;20209;-85
2022/11/05 07:45:19;;;;;;;3.87;2.13;;;10.90;99.90;;;;;;5048325;28;20258;-86
2022/11/05 07:47:47;;;;;;;4.27;1.90;;;10.80;99.90;;;;;;5048034;28;20204;-82
2022/11/05 07:50:15;;;;;;;3.80;1.30;;;10.80;99.90;;;;;;5044570;28;20692;-81
2022/11/05 07:52:42;;;;;;;4.83;1.53;;;10.80;99.90;;;;;;5044926;28;20232;-82
2022/11/05 07:55:10;;;;;;;7.73;2.50;;;10.80;99.90;;;;;;5043321;28;20225;-81
2022/11/05 07:57:44;;;;;;;5.70;2.00;;;10.80;99.90;;;;;;5044948;28;20292;-85
2022/11/05 08:00:14;;;;;;;5.73;2.00;;;10.80;99.90;;;;;;5048676;28;20198;-85
2022/11/05 08:02:44;;;;;;;5.40;1.67;;;10.90;99.90;;;;;;5038120;28;20529;-84
2022/11/05 08:05:11;;;;;;;6.50;1.80;;;11.00;99.90;;;;;;5041692;28;20199;-85
2022/11/05 08:07:38;;;;;;;6.87;1.87;;;11.10;99.90;;;;;;5029290;28;20202;-85
2022/11/05 08:10:06;;;;;;;3.97;1.77;;;11.20;99.90;;;;;;5038005;28;20206;-85
2022/11/05 08:12:33;;;;;;;4.30;1.93;;;11.20;99.90;;;;;;5039469;28;20201;-84
2022/11/05 08:15:00;;;;;;;4.80;1.53;;;11.20;99.90;;;;;;5029673;28;20234;-83
2022/11/05 08:17:28;;;;;;;4.57;1.30;;;11.20;99.90;;;;;;5043509;28;20237;-85
2022/11/05 08:20:03;;;;;;;3.43;1.33;;;11.20;99.90;;;;;;5047606;28;20256;-83
2022/11/05 08:22:30;;;;;;;3.03;1.47;;;11.30;99.90;;;;;;5043941;28;20209;-82
2022/11/05 08:24:56;;;;;;;4.33;1.60;;;11.40;99.90;;;;;;5047248;28;20206;-83
2022/11/05 08:27:23;;;;;;;4.77;1.80;;;11.40;99.90;;;;;;5048501;28;20205;-82
2022/11/05 08:29:50;;;;;;;5.10;1.80;;;11.40;99.90;;;;;;5048470;28;20240;-84
2022/11/05 08:32:17;;;;;;;3.73;1.60;;;11.40;99.90;;;;;;5049233;28;20217;-84
2022/11/05 08:34:45;;;;;;;2.17;1.30;;;11.40;99.90;;;;;;5051271;28;20732;-83
2022/11/05 08:37:12;;;;;;;2.73;1.30;;;11.40;99.90;;;;;;5051696;28;20217;-85
2022/11/05 08:39:39;;;;;;;2.23;1.30;;;11.40;99.90;;;;;;5047839;28;20209;-83
2022/11/05 08:42:06;;;;;;;2.70;1.20;;;11.30;99.90;;;;;;5051935;28;20198;-83
2022/11/05 08:44:33;;;;;;;4.47;1.20;;;11.30;99.90;;;;;;5050642;28;20212;-84
2022/11/05 08:47:00;;;;;;;3.33;1.20;;;11.30;99.90;;;;;;5051958;28;20217;-84
2022/11/05 08:49:26;;;;;;;2.13;1.33;;;11.30;99.90;;;;;;5048861;28;20201;-84
2022/11/05 08:51:55;;;;;;;2.90;1.20;;;11.30;99.90;;;;;;5052898;28;20487;-82
2022/11/05 08:54:22;;;;;;;6.27;2.20;;;11.30;99.90;;;;;;5052607;28;20233;-83
2022/11/05 08:56:49;;;;;;;4.33;2.00;;;11.30;99.90;;;;;;5034983;28;20214;-84
2022/11/05 08:59:16;;;;;;;7.70;2.20;;;11.30;99.90;;;;;;5030930;28;20213;-83
2022/11/05 09:01:43;;;;;;;5.77;1.77;;;11.30;99.90;;;;;;5042384;28;20205;-83
2022/11/05 09:04:10;;;;;;;4.73;1.43;;;11.40;99.90;;;;;;5051761;28;20205;-83
2022/11/05 09:06:37;;;;;;;3.97;1.80;;;11.40;99.90;;;;;;5047666;28;20212;-82
2022/11/05 09:09:05;;;;;;;5.97;2.00;;;11.40;99.90;;;;;;5050355;28;20673;-81
2022/11/05 09:11:32;;;;;;;7.47;2.20;;;11.50;99.90;;;;;;5046532;28;20546;-83
2022/11/05 09:13:59;;;;;;;4.67;2.23;;;11.50;99.90;;;;;;5028981;28;20198;-81
2022/11/05 09:16:26;;;;;;;3.37;2.00;;;11.50;99.90;;;;;;5037867;28;20233;-80
2022/11/05 09:18:54;;;;;;;9.37;2.73;;;11.60;99.90;;;;;;5030711;28;20248;-78
2022/11/05 09:21:21;;;;;;;5.37;2.73;;;11.60;99.90;;;;;;5028638;28;20234;-79
2022/11/05 09:23:48;;;;;;;10.23;2.93;;;11.60;99.90;;;;;;5038827;28;20206;-80
2022/11/05 09:26:16;;;;;;;9.60;3.60;;;11.70;99.90;;;;;;5046474;28;20225;-79
2022/11/05 09:28:43;;;;;;;5.17;2.10;;;11.80;99.90;;;;;;5044268;28;20202;-80
2022/11/05 09:31:11;;;;;;;3.87;1.40;;;11.80;99.90;;;;;;5046735;28;20194;-77
2022/11/05 09:33:39;;;;;;;3.70;1.00;;;11.80;99.90;;;;;;5045282;28;20205;-80
2022/11/05 09:36:07;;;;;;;4.03;1.20;;;11.80;99.90;;;;;;5047316;28;20230;-82
2022/11/05 09:38:35;;;;;;;4.90;2.20;;;11.90;99.90;;;;;;5046202;28;20202;-79
2022/11/05 09:41:04;;;;;;;5.30;1.80;;;11.90;99.90;;;;;;5029375;28;20217;-82
2022/11/05 09:43:37;;;;;;;4.43;1.80;;;11.90;99.90;;;;;;5027353;28;20685;-79
2022/11/05 09:46:10;;;;;;;6.33;1.70;;;12.00;99.90;;;;;;5041391;28;20598;-80
2022/11/05 09:48:38;;;;;;;3.27;1.10;;;12.00;99.90;;;;;;5047416;28;20191;-78
2022/11/05 09:51:06;;;;;;;3.23;1.20;;;12.10;99.90;;;;;;5044396;28;20503;-80
2022/11/05 09:53:38;;;;;;;8.57;2.03;;;12.20;99.90;;;;;;5046940;28;20221;-78
2022/11/05 09:56:15;;;;;;;5.80;1.90;;;12.20;99.90;;;;;;5044957;28;20221;-81
2022/11/05 09:58:47;;;;;;;5.60;1.90;;;12.30;99.90;;;;;;5047415;28;20214;-77
2022/11/05 10:01:18;;;;;;;4.03;1.10;;;12.40;99.90;;;;;;5045707;28;20230;-78
2022/11/05 10:03:50;;;;;;;3.97;1.23;;;12.40;99.90;;;;;;5047653;28;20208;-82
2022/11/05 10:06:21;;;;;;;4.20;1.20;;;12.50;99.90;;;;;;5045113;28;20205;-80
2022/11/05 10:08:50;;;;;;;7.63;1.80;;;12.50;99.90;;;;;;5027992;28;20626;-83
2022/11/05 10:11:22;;;;;;;6.27;1.73;;;12.60;99.90;;;;;;5028219;28;20294;-81
2022/11/05 10:13:57;;;;;;;4.77;2.13;;;12.60;99.90;;;;;;5042020;28;20220;-82
2022/11/05 10:16:27;;;;;;;5.83;2.17;;;12.70;99.90;;;;;;5047375;28;20914;-85
2022/11/05 10:18:57;;;;;;;6.83;2.27;;;12.70;99.90;;;;;;5044814;28;20657;-81
2022/11/05 10:21:24;;;;;;;3.27;1.63;;;12.70;99.90;;;;;;5043611;28;20202;-79
2022/11/05 10:23:51;;;;;;;6.40;2.53;;;12.80;99.90;;;;;;5042335;28;20209;-79
2022/11/05 10:26:21;;;;;;;4.40;1.83;;;12.80;99.90;;;;;;5044473;28;20198;-77
2022/11/05 10:28:51;;;;;;;4.87;1.70;;;12.90;99.90;;;;;;5044249;28;20229;-84
2022/11/05 10:31:21;;;;;;;5.23;2.07;;;12.90;99.90;;;;;;5047198;28;20634;-83
2022/11/05 10:33:50;;;;;;;10.00;2.30;;;12.90;99.90;;;;;;5046344;28;20202;-84
2022/11/05 10:36:22;;;;;;;5.50;2.00;;;12.90;99.90;;;;;;5034668;28;20221;-86
2022/11/05 10:38:50;;;;;;;4.27;1.73;;;12.90;99.90;;;;;;5046064;28;20198;-82
2022/11/05 10:41:40;;;;;;;4.90;1.10;;;13.00;99.90;;;;;;5027361;28;20604;-81
2022/11/05 10:44:23;;;;;;;2.47;1.43;;;13.00;99.90;;;;;;5024796;28;20214;-81
2022/11/05 10:46:57;;;;;;;3.63;1.80;;;13.00;99.90;;;;;;5040768;28;20221;-82
2022/11/05 10:49:39;;;;;;;3.63;1.40;;;13.00;99.90;;;;;;5047190;28;20205;-81
2022/11/05 10:52:20;;;;;;;6.20;1.60;;;13.00;99.90;;;;;;5045046;28;20208;-77
2022/11/05 10:54:48;;;;;;;4.63;1.40;;;13.10;99.90;;;;;;5047103;28;20189;-86
2022/11/05 10:57:31;;;;;;;2.80;1.40;;;13.10;99.90;;;;;;5046931;28;20202;-83
2022/11/05 11:00:30;;;;;;;4.77;1.33;;;13.10;99.90;;;;;;5046610;28;20209;-87
2022/11/05 11:02:59;;;;;;;3.43;1.23;;;13.10;99.90;;;;;;5045601;28;20689;-82
2022/11/05 11:05:29;;;;;;;3.93;1.60;;;13.10;99.90;;;;;;5045371;28;20673;-82
2022/11/05 11:08:04;;;;;;;4.43;1.67;;;13.10;99.90;;;;;;5042222;28;20212;-80
2022/11/05 11:10:37;;;;;;;5.67;2.27;;;13.10;99.90;;;;;;5044153;28;20197;-81
2022/11/05 11:13:03;;;;;;;4.93;1.90;;;13.10;99.90;;;;;;5042270;28;20206;-82
2022/11/05 11:15:33;;;;;;;3.53;1.47;;;13.20;99.90;;;;;;5045899;28;20225;-82
2022/11/05 11:18:25;;;;;;;4.80;2.07;;;13.20;99.90;;;;;;5038209;28;20912;-84
2022/11/05 11:20:53;;;;;;;6.03;2.43;;;13.20;99.90;;;;;;5026943;28;20289;-80
2022/11/05 11:23:19;;;;;;;8.40;2.60;;;13.20;99.90;;;;;;5037489;28;20211;-81
2022/11/05 11:25:50;;;;;;;9.40;2.47;;;13.30;99.90;;;;;;5047808;28;20197;-87
2022/11/05 11:28:22;;;;;;;6.57;2.47;;;13.30;99.90;;;;;;5046287;28;20197;-82
2022/11/05 11:30:55;;;;;;;6.00;2.57;;;13.30;99.90;;;;;;5027469;28;20207;-82
2022/11/05 11:33:27;;;;;;;6.87;1.90;;;13.30;99.90;;;;;;5028297;28;20209;-86
2022/11/05 11:35:54;;;;;;;6.53;2.23;;;13.30;99.90;;;;;;5042349;28;20232;-83
2022/11/05 11:38:23;;;;;;;6.70;1.83;;;13.30;99.90;;;;;;5047942;28;20559;-83
2022/11/05 11:40:50;;;;;;;8.03;2.80;;;13.30;99.90;;;;;;5045141;28;20216;-86
2022/11/05 11:43:36;;;;;;;8.33;2.70;;;13.30;99.90;;;;;;5047613;28;20217;-86
2022/11/05 11:46:05;;;;;;;12.10;3.13;;;13.30;99.90;;;;;;5045218;28;20513;-82
2022/11/05 11:48:35;;;;;;;9.07;2.60;;;13.30;99.90;;;;;;5045346;28;20534;-81
2022/11/05 11:51:18;;;;;;;9.40;2.90;;;13.30;99.90;;;;;;5027283;28;20210;-82
2022/11/05 11:53:48;;;;;;;10.90;2.73;;;13.20;99.90;;;;;;5026970;28;20226;-83
2022/11/05 11:56:18;;;;;;;11.17;3.07;;;13.20;99.90;;;;;;5028244;28;20313;-84
2022/11/05 11:58:48;;;;;;;11.17;3.23;;;13.10;99.90;;;;;;5046531;28;20899;-82
2022/11/05 12:01:53;;;;;;;14.77;2.93;;;13.10;99.90;;;;;;5045416;28;20650;-82
2022/11/05 12:04:40;;;;;;;16.83;2.80;;;13.00;99.90;;;;;;5029294;28;20584;-83
2022/11/05 12:07:22;;;;;;;9.40;2.40;;;13.00;99.90;;;;;;5031777;28;20285;-87
2022/11/05 12:10:00;;;;;;;7.50;2.30;;;13.00;99.90;;;;;;5034020;28;20190;-83
2022/11/05 12:12:36;;;;;;;8.27;2.47;;;13.00;99.90;;;;;;5033684;28;20285;-85
2022/11/05 12:15:18;;;;;;;6.60;2.63;;;13.10;99.90;;;;;;5052388;28;20202;-85
2022/11/05 12:17:51;;;;;;;7.10;2.73;;;13.10;99.90;;;;;;5051768;28;20248;-85
2022/11/05 12:20:38;;;;;;;10.57;2.27;;;13.20;99.90;;;;;;5051292;28;20212;-85
2022/11/05 12:23:26;;;;;;;7.80;2.63;;;13.20;99.90;;;;;;5048973;28;20322;-82
2022/11/05 12:25:59;;;;;;;6.47;2.10;;;13.10;99.90;;;;;;5028777;28;20634;-81
2022/11/05 12:28:42;;;;;;;5.90;2.17;;;13.10;99.90;;;;;;5028654;28;20713;-83
2022/11/05 12:31:22;;;;;;;8.47;2.27;;;13.10;99.90;;;;;;5031544;28;20206;-84
2022/11/05 12:34:01;;;;;;;6.00;2.43;;;13.10;99.90;;;;;;5048628;28;20209;-84
2022/11/05 12:36:42;;;;;;;7.83;1.90;;;13.10;99.90;;;;;;5050228;28;20237;-84
2022/11/05 12:39:35;;;;;;;8.37;2.20;;;13.10;99.90;;;;;;5049645;28;20193;-81
2022/11/05 12:42:06;;;;;;;5.97;2.17;;;13.00;99.90;;;;;;5031011;28;20202;-83
2022/11/05 12:44:53;;;;;;;11.57;2.43;;;13.00;99.90;;;;;;5030572;28;20206;-82
2022/11/05 12:47:36;;;;;;;6.10;2.20;;;13.00;99.90;;;;;;5050101;28;20216;-87
2022/11/05 12:50:16;;;;;;;8.37;2.27;;;12.90;99.90;;;;;;5051223;28;20198;-82
2022/11/05 12:53:10;;;;;;;8.17;2.40;;;12.90;99.90;;;;;;5050452;28;20237;-83
2022/11/05 12:55:40;;;;;;;9.07;1.83;;;12.90;99.90;;;;;;5040719;28;20510;-83
2022/11/05 12:58:16;;;;;;;4.87;1.50;;;12.90;99.90;;;;;;5030669;28;20202;-83
2022/11/05 13:00:50;;;;;;;3.77;1.13;;;12.90;99.90;;;;;;5033661;28;20779;-84
2022/11/05 13:03:27;;;;;;;3.77;1.47;;;12.90;99.90;;;;;;5032109;28;20209;-84
2022/11/05 13:06:02;;;;;;;4.87;1.30;;;12.90;99.90;;;;;;5041250;28;20198;-81
2022/11/05 13:08:34;;;;;;;4.07;1.43;;;12.90;99.90;;;;;;5037441;28;20602;-81
2022/11/05 13:11:13;;;;;;;7.03;2.20;;;12.90;99.90;;;;;;5030580;28;20233;-80
2022/11/05 13:13:43;;;;;;;6.07;1.90;;;12.90;99.90;;;;;;5040394;28;20194;-83
2022/11/05 13:16:15;;;;;;;4.13;1.83;;;13.00;99.90;;;;;;5050427;28;20214;-84
2022/11/05 13:18:47;;;;;;;4.33;1.50;;;13.00;99.90;;;;;;5047581;28;20527;-85
2022/11/05 13:21:17;;;;;;;6.43;1.73;;;13.00;99.90;;;;;;5051173;28;20616;-83
2022/11/05 13:23:47;;;;;;;3.63;1.20;;;13.10;99.90;;;;;;5048177;28;20207;-83
2022/11/05 13:26:18;;;;;;;3.87;1.53;;;13.10;99.90;;;;;;5050070;28;20194;-81
2022/11/05 13:28:51;;;;;;;4.63;2.20;;;13.10;99.90;;;;;;5049797;28;20206;-84
2022/11/05 13:31:21;;;;;;;6.30;1.40;;;13.20;99.90;;;;;;5046699;28;20221;-84
2022/11/05 13:33:50;;;;;;;5.60;1.67;;;13.20;99.90;;;;;;5049102;28;20210;-86
2022/11/05 13:39:15;;;;;;;4.60;1.17;;;13.20;99.90;;;;;;5050407;28;20273;-88
2022/11/05 13:41:54;;;;;;;5.03;1.53;;;13.20;99.90;;;;;;5035153;28;20514;-87
2022/11/05 13:44:57;;;;;;;3.30;1.07;;;13.20;99.90;;;;;;5030941;28;20248;-85
2022/11/05 13:47:39;;;;;;;6.10;1.37;;;13.20;99.90;;;;;;5031907;28;20210;-87
2022/11/05 13:50:49;;;;;;;6.40;2.03;;;13.20;99.90;;;;;;5031250;28;20212;-86